• Join FlightAware (Why Join?)
  • Login
  • US Flag 
04:41AM EDT


 

Airport Tracker/Info


-or-


 

Live Flight TrackerFlight Track Log ✈ SWA3201 ✈ 09-Apr-2012 ✈ KBWI - KALB

Flight Track Log - Related Links

Times and Time Zones

All times are in EDT time to prevent confusion due to time zone crossing. See the SWA3201 flight status page for this flight to view local times or setup timezone preferences in your user account.

Time Position Orientation Groundspeed Altitude Reporting Facility
EDT Latitude Longitude Course Direction KTS MPH feet Rate Location/Type
07:42AM 39.1667 -76.7167 170° South 177 204 3,300  Level Potomac TRACON
07:44AM 39.0731 -76.6958 79° East 165 190 7,000 1,800 Climbing Washington Center
07:45AM 39.0886 -76.5892 77° East 189 217 8,600 2,640 Climbing Washington Center
07:46AM 39.1103 -76.4717 76° East 233 268 12,200 3,600 Climbing Washington Center
07:47AM 39.1342 -76.3436 78° East 310 357 15,800 3,300 Climbing Washington Center
07:48AM 39.1578 -76.1992 82° East 366 421 18,900 2,940 Climbing Washington Center
07:49AM 39.1750 -76.0386 77° East 421 484 21,700 2,100 Climbing Washington Center
07:50AM 39.2047 -75.8728 45° Northeast 450 518 23,100 2,220 Climbing Washington Center
07:51AM 39.2925 -75.7578 45° Northeast 430 495 26,200 2,820 Climbing Washington Center
07:52AM 39.3781 -75.6453 46° Northeast 430 495 28,800 1,380 Climbing Washington Center
07:53AM 39.4614 -75.5350 45° Northeast 430 495 29,000 60 Climbing Washington Center
07:54AM 39.5489 -75.4219 47° Northeast 430 495 29,000  Level Washington Center
07:56AM 39.7425 -75.1500 47° Northeast 438 504 29,000  Level New York Center
07:57AM 39.8258 -75.0336 46° Northeast 438 504 29,000  Level New York Center
07:58AM 39.9114 -74.9169 48° Northeast 443 510 29,000  Level New York Center
07:59AM 39.9992 -74.7894 46° Northeast 431 496 29,000  Level New York Center
08:00AM 40.0736 -74.6878 42° Northeast 426 490 29,000  Level New York Center
08:01AM 40.1711 -74.5739 39° Northeast 421 484 29,000  Level New York Center
08:02AM 40.2575 -74.4808 42° Northeast 421 484 29,000  Level New York Center
08:03AM 40.3461 -74.3764 40° Northeast 426 490 29,000  Level New York Center
08:04AM 40.4367 -74.2750 42° Northeast 426 490 29,000  Level New York Center
08:05AM 40.5253 -74.1703 41° Northeast 426 490 29,000 -480 Level New York Center
08:06AM 40.6178 -74.0656 42° Northeast 421 484 28,100 -1,620 Descending New York Center
08:07AM 40.7039 -73.9631 42° Northeast 421 484 25,900 -1,320 Descending New York Center
08:10AM 40.9072 -73.7225 38° Northeast 389 448 23,700 -840 Descending Boston Center
08:11AM 40.9958 -73.6308 20° North 377 434 23,000 -360 Descending Boston Center
08:12AM 41.0775 -73.5911 20° North 355 409 23,000 -60 Level Boston Center
08:13AM 41.1717 -73.5458 10° North 344 396 22,900 -600 Descending Boston Center
08:14AM 41.2719 -73.5228 359° North 338 389 21,800 -1,080 Descending Boston Center
08:15AM 41.3636 -73.5242 358° North 333 383 20,800 -1,560 Descending Boston Center
08:16AM 41.4469 -73.5283 360° North 328 377 18,700 -2,040 Descending Boston Center
08:17AM 41.5447 -73.5275 North 322 371 16,800 -1,500 Descending Boston Center
08:18AM 41.6242 -73.5258 359° North 315 362 15,800 -1,080 Descending Boston Center
08:19AM 41.7178 -73.5275 359° North 305 351 14,700 -1,020 Descending Boston Center
08:20AM 41.7928 -73.5289 North 305 351 13,800 -960 Descending Boston Center
08:21AM 41.8867 -73.5278 359° North 305 351 12,800 -960 Descending Boston Center
08:22AM 41.9597 -73.5289 North 300 345 11,900 -1,080 Descending Boston Center
08:23AM 42.0242 -73.5272 North 292 336 11,000 -480 Descending Boston Center
08:24AM 42.1117 -73.5258 347° North 284 327 11,000  Level Boston Center
08:25AM 42.2094 -73.5556 349° North 280 322 11,000 -720 Level Boston Center
08:26AM 42.2822 -73.5739 348° North 277 319 9,600 -1,380 Descending Boston Center
08:27AM 42.3425 -73.5917 351° North 274 315 8,400 -1,440 Descending Boston Center
08:28AM 42.4153 -73.6072 354° North 269 310 6,900 -1,500 Descending Boston Center
08:29AM 42.4986 -73.6200 348° North 246 283 5,300 -1,200 Descending Boston Center
08:30AM 42.5506 -73.6350 352° North 246 283 4,500 -1,020 Descending Boston Center
08:31AM 42.6169 -73.6475 347° North 241 277 3,500 -960 Descending Boston Center
08:32AM 42.6772 -73.6658 335° Northwest 236 272 2,600 -720 Descending Boston Center
08:33AM 42.7331 -73.7008 301° West 174 200 2,100 -720 Descending Boston Center
08:34AM 42.7494 -73.7378 269° West 124 143 1,100 -900 Descending Boston Center
08:35AM 42.7489 -73.7858 269° West 122 140 400 -720 Descending Boston Center